TimeHST,TemperatureF,Dew PointF,Humidity,Sea Level PressureIn,VisibilityMPH,Wind Direction,Wind SpeedMPH,Gust SpeedMPH,PrecipitationIn,Events,Conditions,WindDirDegrees,DateUTC
12:53 AM,70.0,60.1,71,30.05,10.0,NE,5.8,-,N/A,,Clear,40,2013-02-23 10:53:00
1:53 AM,70.0,60.1,71,30.03,10.0,East,8.1,-,N/A,,Clear,100,2013-02-23 11:53:00
2:53 AM,70.0,61.0,73,30.01,10.0,East,4.6,-,N/A,,Clear,100,2013-02-23 12:53:00
3:53 AM,69.1,61.0,75,30.01,10.0,NE,8.1,-,N/A,,Partly Cloudy,40,2013-02-23 13:53:00
4:31 AM,71.6,60.8,69,30.01,10.0,NE,4.6,-,N/A,,Mostly Cloudy,50,2013-02-23 14:31:00
4:53 AM,73.0,60.1,64,30.01,10.0,East,3.5,-,N/A,,Overcast,80,2013-02-23 14:53:00
5:12 AM,69.8,60.8,73,30.01,10.0,ESE,4.6,-,N/A,,Scattered Clouds,110,2013-02-23 15:12:00
5:53 AM,70.0,61.0,73,30.01,10.0,ESE,5.8,-,N/A,,Clear,110,2013-02-23 15:53:00
6:53 AM,69.1,60.1,73,30.04,10.0,ENE,6.9,-,N/A,,Clear,70,2013-02-23 16:53:00
7:53 AM,73.9,60.1,62,30.06,10.0,ESE,5.8,-,N/A,,Clear,110,2013-02-23 17:53:00
8:53 AM,78.1,62.1,58,30.07,10.0,SE,6.9,-,N/A,,Clear,140,2013-02-23 18:53:00
9:53 AM,77.0,63.0,62,30.08,10.0,SW,6.9,-,N/A,,Scattered Clouds,220,2013-02-23 19:53:00
10:53 AM,78.1,64.9,64,30.08,10.0,SW,8.1,-,N/A,,Mostly Cloudy,230,2013-02-23 20:53:00
11:53 AM,80.1,64.0,58,30.06,10.0,SSW,12.7,-,N/A,,Partly Cloudy,210,2013-02-23 21:53:00
12:53 PM,80.1,63.0,56,30.03,10.0,SSW,13.8,-,N/A,,Clear,200,2013-02-23 22:53:00
1:53 PM,81.0,63.0,54,30.01,10.0,SSW,15.0,-,N/A,,Clear,200,2013-02-23 23:53:00
2:53 PM,81.0,63.0,54,29.99,10.0,SSW,12.7,-,N/A,,Clear,200,2013-02-24 00:53:00
3:53 PM,78.1,64.0,62,29.99,10.0,SSW,10.4,-,N/A,,Mostly Cloudy,210,2013-02-24 01:53:00
4:53 PM,75.0,59.0,57,30.00,10.0,SE,12.7,-,0.00,,Clear,130,2013-02-24 02:53:00
5:53 PM,78.1,63.0,60,30.02,10.0,ESE,6.9,-,N/A,,Mostly Cloudy,120,2013-02-24 03:53:00
6:53 PM,77.0,57.9,52,30.04,10.0,NE,13.8,-,N/A,,Overcast,50,2013-02-24 04:53:00
7:53 PM,75.0,57.9,55,30.06,10.0,NE,11.5,-,N/A,,Overcast,50,2013-02-24 05:53:00
8:53 PM,73.9,57.0,55,30.06,10.0,NE,10.4,-,N/A,,Clear,40,2013-02-24 06:53:00
9:53 PM,73.0,57.0,57,30.06,10.0,Calm,Calm,-,N/A,,Clear,0,2013-02-24 07:53:00
10:53 PM,72.0,61.0,68,30.05,10.0,ESE,5.8,-,N/A,,Clear,110,2013-02-24 08:53:00
11:42 PM,73.4,57.2,57,30.04,10.0,ENE,8.1,-,N/A,,Mostly Cloudy,60,2013-02-24 09:42:00
11:53 PM,73.0,57.9,59,30.05,10.0,East,6.9,-,N/A,,Overcast,80,2013-02-24 09:53:00